Time;durP1;ratioP1;P1;durP2;ratioP2;P2;SDS_P1;SDS_P2;PMS_P1;PMS_P2;Temp;Humidity;BMP_temperature;BMP_pressure;BME280_temperature;BME280_humidity;BME280_pressure;Samples;Min_cycle;Max_cycle;Signal;HPM_P1;HPM_P2
2023/01/21 00:04:21;;;;;;;26.00;13.27;;;-1.90;99.90;;;;;;15204406;23;20041;-36
2023/01/21 00:10:23;;;;;;;26.20;12.90;;;-2.10;99.90;;;;;;15205352;23;20026;-36
2023/01/21 00:16:25;;;;;;;26.20;13.68;;;-2.10;99.90;;;;;;15182534;23;20121;-36
2023/01/21 00:22:27;;;;;;;25.70;12.82;;;-2.00;99.90;;;;;;15209260;23;20026;-36
2023/01/21 00:28:30;;;;;;;25.10;12.45;;;-2.00;99.90;;;;;;15210603;23;20022;-36
2023/01/21 00:34:31;;;;;;;28.60;13.88;;;-2.00;99.90;;;;;;15183334;23;20109;-36
2023/01/21 00:40:33;;;;;;;34.90;16.27;;;-2.00;99.90;;;;;;15210450;23;20022;-36
2023/01/21 00:46:35;;;;;;;36.17;18.63;;;-2.00;99.90;;;;;;15183116;23;20026;-36
2023/01/21 00:52:38;;;;;;;25.65;14.77;;;-1.90;99.90;;;;;;15207114;23;20076;-36
2023/01/21 00:58:42;;;;;;;25.77;13.60;;;-2.10;99.90;;;;;;15208360;23;20018;-36
2023/01/21 01:04:44;;;;;;;25.88;13.52;;;-2.00;99.90;;;;;;15207272;23;20029;-37
2023/01/21 01:10:46;;;;;;;30.45;13.98;;;-2.00;99.90;;;;;;15209940;23;20030;-36
2023/01/21 01:16:49;;;;;;;26.38;14.40;;;-2.00;99.90;;;;;;15207708;23;20026;-36
2023/01/21 01:22:50;;;;;;;33.00;16.05;;;-1.90;99.90;;;;;;15207397;23;20335;-36
2023/01/21 01:28:52;;;;;;;29.13;14.27;;;-1.90;99.90;;;;;;15206778;23;20041;-36
2023/01/21 01:34:54;;;;;;;31.88;14.98;;;-2.00;99.90;;;;;;15205125;23;20026;-36
2023/01/21 01:40:56;;;;;;;32.78;15.23;;;-2.00;99.90;;;;;;15209602;23;20029;-36
2023/01/21 01:46:59;;;;;;;31.67;14.85;;;-2.10;99.90;;;;;;15208377;23;20347;-36
2023/01/21 01:53:01;;;;;;;25.58;14.20;;;-2.10;99.90;;;;;;15181428;23;20026;-36
2023/01/21 01:59:03;;;;;;;30.05;13.50;;;-2.10;99.90;;;;;;15205254;23;20029;-37
2023/01/21 02:05:07;;;;;;;25.38;13.32;;;-2.20;99.90;;;;;;15205079;23;20093;-36
2023/01/21 02:11:14;;;;;;;28.85;14.52;;;-2.20;99.90;;;;;;15204518;23;20420;-36
2023/01/21 02:17:37;;;;;;;26.00;14.18;;;-2.30;99.90;;;;;;15207577;23;20029;-36
2023/01/21 02:24:18;;;;;;;29.05;15.10;;;-2.30;99.90;;;;;;15206408;23;20053;-36
2023/01/21 02:30:38;;;;;;;30.60;15.25;;;-2.40;99.90;;;;;;15204406;23;20098;-36
2023/01/21 02:37:00;;;;;;;29.05;14.65;;;-2.40;99.90;;;;;;15205256;23;20033;-36
2023/01/21 02:43:17;;;;;;;30.23;13.77;;;-2.40;99.90;;;;;;15206589;23;20058;-36
2023/01/21 02:49:29;;;;;;;28.88;14.48;;;-2.50;99.90;;;;;;15206004;23;20028;-36
2023/01/21 02:55:35;;;;;;;30.05;15.27;;;-2.50;99.90;;;;;;15203408;23;20038;-36
2023/01/21 03:02:31;;;;;;;29.98;15.52;;;-2.50;99.90;;;;;;15206813;23;20057;-36
2023/01/21 03:08:46;;;;;;;32.92;15.65;;;-2.50;99.90;;;;;;15080197;23;20033;-36
2023/01/21 03:21:30;;;;;;;35.47;17.05;;;-2.10;99.90;;;;;;15205542;23;20026;-36
2023/01/21 03:27:32;;;;;;;33.58;17.65;;;-2.00;99.90;;;;;;15205401;23;20021;-36
2023/01/21 03:33:39;;;;;;;36.78;17.20;;;-1.80;99.90;;;;;;15178261;23;20037;-36
2023/01/21 03:40:10;;;;;;;37.00;18.33;;;-1.70;99.90;;;;;;15202728;23;20097;-36
2023/01/21 03:46:32;;;;;;;31.55;15.70;;;-1.50;99.90;;;;;;15206072;23;20551;-36
2023/01/21 03:52:35;;;;;;;33.97;17.38;;;-1.40;99.90;;;;;;15203963;23;20575;-36
2023/01/21 03:58:36;;;;;;;32.63;17.85;;;-1.30;99.90;;;;;;15204483;23;20032;-36
2023/01/21 04:04:38;;;;;;;29.05;15.52;;;-1.20;99.90;;;;;;15204034;23;20026;-36
2023/01/21 04:10:40;;;;;;;38.58;17.75;;;-1.10;99.90;;;;;;15205864;23;20045;-36
2023/01/21 04:16:42;;;;;;;42.47;19.92;;;-1.10;99.90;;;;;;15203464;23;20029;-36
2023/01/21 04:22:44;;;;;;;42.20;20.40;;;-1.10;99.90;;;;;;15205843;23;20101;-37
2023/01/21 04:28:46;;;;;;;36.25;18.83;;;-1.00;99.90;;;;;;15202941;23;20063;-36
2023/01/21 04:34:48;;;;;;;36.47;18.52;;;-1.00;99.90;;;;;;15203173;23;20029;-36
2023/01/21 04:40:50;;;;;;;43.53;20.10;;;-1.00;99.90;;;;;;15204465;23;20472;-36
2023/01/21 04:46:51;;;;;;;34.55;18.02;;;-1.00;99.90;;;;;;15205410;23;20049;-38
2023/01/21 04:52:53;;;;;;;42.95;19.73;;;-0.80;99.90;;;;;;15203282;23;20149;-36
2023/01/21 04:58:55;;;;;;;33.53;16.45;;;-0.90;99.90;;;;;;15206352;23;20025;-36
2023/01/21 05:04:57;;;;;;;41.03;19.15;;;-0.80;99.90;;;;;;15206534;23;20411;-36
2023/01/21 05:10:59;;;;;;;44.78;19.92;;;-0.80;99.90;;;;;;15209154;23;20097;-36
2023/01/21 05:17:01;;;;;;;45.58;21.83;;;-0.80;99.90;;;;;;15208014;23;20387;-36
2023/01/21 05:23:03;;;;;;;48.50;22.00;;;-0.80;99.90;;;;;;15208287;23;20030;-36
2023/01/21 05:29:05;;;;;;;39.92;18.33;;;-0.80;99.90;;;;;;15209114;23;20021;-36
2023/01/21 05:35:07;;;;;;;46.83;20.88;;;-0.80;99.90;;;;;;15208544;23;20049;-36
2023/01/21 05:41:10;;;;;;;44.45;21.23;;;-0.80;99.90;;;;;;15208392;23;20032;-36
2023/01/21 05:47:12;;;;;;;50.47;20.90;;;-0.80;99.90;;;;;;15209282;23;20061;-36
2023/01/21 05:53:15;;;;;;;49.92;21.48;;;-0.80;99.90;;;;;;15206825;23;20073;-36
2023/01/21 05:59:16;;;;;;;47.10;20.50;;;-0.70;99.90;;;;;;15208678;23;20018;-36
2023/01/21 06:05:18;;;;;;;55.35;21.92;;;-0.70;99.90;;;;;;15206991;23;20061;-36
2023/01/21 06:11:20;;;;;;;41.60;19.13;;;-0.70;99.90;;;;;;15207096;23;20026;-36
2023/01/21 06:17:22;;;;;;;44.42;19.60;;;-0.70;99.90;;;;;;15205735;23;20030;-36
2023/01/21 06:23:24;;;;;;;31.67;15.63;;;-0.70;99.90;;;;;;15206841;23;20354;-37
2023/01/21 06:29:26;;;;;;;42.55;20.02;;;-0.70;99.90;;;;;;15206344;23;20080;-36
2023/01/21 06:35:28;;;;;;;43.92;20.02;;;-0.70;99.90;;;;;;15206254;23;20026;-36
2023/01/21 06:41:30;;;;;;;45.00;20.35;;;-0.70;99.90;;;;;;15206194;23;20415;-37
2023/01/21 06:47:32;;;;;;;49.15;22.80;;;-0.70;99.90;;;;;;15208555;23;20572;-37
2023/01/21 06:53:34;;;;;;;51.55;23.35;;;-0.70;99.90;;;;;;15206067;23;20022;-36
2023/01/21 06:59:35;;;;;;;45.25;20.65;;;-0.80;99.90;;;;;;15204798;23;20022;-36
2023/01/21 07:05:37;;;;;;;43.00;20.70;;;-0.80;99.90;;;;;;15205246;23;20451;-36
2023/01/21 07:11:39;;;;;;;46.20;20.40;;;-0.70;99.90;;;;;;15207188;23;20383;-36
2023/01/21 07:17:41;;;;;;;43.88;20.38;;;-0.70;99.90;;;;;;15205835;23;20107;-36
2023/01/21 07:23:45;;;;;;;51.88;22.23;;;-0.70;99.90;;;;;;15179750;23;20354;-36
2023/01/21 07:29:47;;;;;;;50.00;21.05;;;-0.70;99.90;;;;;;15205891;23;20034;-37
2023/01/21 07:35:49;;;;;;;51.20;22.38;;;-0.70;99.90;;;;;;15204560;23;20037;-36
2023/01/21 07:41:52;;;;;;;49.00;21.40;;;-0.70;99.90;;;;;;15201461;23;20446;-36
2023/01/21 07:47:54;;;;;;;45.97;22.00;;;-0.70;99.90;;;;;;15205037;23;20038;-36
2023/01/21 07:53:55;;;;;;;51.72;23.27;;;-0.70;99.90;;;;;;15205348;23;20026;-36
2023/01/21 07:59:59;;;;;;;51.08;22.80;;;-0.60;99.90;;;;;;15204230;23;20022;-36
2023/01/21 08:06:01;;;;;;;52.85;23.17;;;-0.60;99.90;;;;;;15204822;23;20018;-36
2023/01/21 08:12:04;;;;;;;54.90;23.15;;;-0.50;99.90;;;;;;15203008;23;20392;-37
2023/01/21 08:18:06;;;;;;;53.75;22.48;;;-0.50;99.90;;;;;;15204872;23;20093;-37
2023/01/21 08:24:09;;;;;;;57.03;24.40;;;-0.40;99.90;;;;;;15203903;23;20030;-36
2023/01/21 08:30:12;;;;;;;58.58;24.77;;;-0.30;99.90;;;;;;15204008;23;20026;-36
2023/01/21 08:36:15;;;;;;;63.35;26.83;;;-0.20;99.90;;;;;;15184586;23;20035;-36
2023/01/21 08:42:18;;;;;;;62.22;23.00;;;-0.20;99.90;;;;;;15184077;23;20043;-36
2023/01/21 08:48:20;;;;;;;56.53;22.58;;;-0.10;99.90;;;;;;15206960;23;20026;-35
2023/01/21 08:54:22;;;;;;;55.75;22.90;;;0.10;99.90;;;;;;15208885;23;20030;-35
2023/01/21 09:00:24;;;;;;;71.57;28.48;;;0.20;99.90;;;;;;15210047;23;20443;-36
2023/01/21 09:06:28;;;;;;;60.05;25.13;;;0.20;99.90;;;;;;15206535;23;20018;-35
2023/01/21 09:12:30;;;;;;;66.75;27.33;;;0.30;99.90;;;;;;15182469;23;20022;-36
2023/01/21 09:18:32;;;;;;;67.38;26.50;;;0.40;99.90;;;;;;15207222;23;20053;-36
2023/01/21 09:24:35;;;;;;;59.60;24.90;;;0.20;99.90;;;;;;15207155;23;20458;-36
2023/01/21 09:30:36;;;;;;;61.58;25.38;;;0.20;99.90;;;;;;15207989;23;20431;-36
2023/01/21 09:36:39;;;;;;;64.28;25.52;;;0.20;99.90;;;;;;15206566;23;20021;-36
2023/01/21 09:42:41;;;;;;;56.50;23.20;;;0.30;99.90;;;;;;15208219;23;20451;-36
2023/01/21 09:48:47;;;;;;;66.05;26.15;;;0.30;99.90;;;;;;15207024;23;20022;-36
2023/01/21 09:54:49;;;;;;;58.85;24.75;;;0.40;99.90;;;;;;15206592;23;20477;-36
2023/01/21 10:01:00;;;;;;;64.97;23.98;;;0.30;99.90;;;;;;15205227;23;20028;-36
2023/01/21 10:07:40;;;;;;;61.65;25.15;;;0.30;99.90;;;;;;15206470;23;20058;-36
2023/01/21 10:14:03;;;;;;;55.53;23.30;;;0.30;99.90;;;;;;15064511;23;20363;-37
2023/01/21 10:20:37;;;;;;;56.10;22.80;;;0.30;99.90;;;;;;15205672;23;20026;-36
2023/01/21 10:26:41;;;;;;;63.10;25.00;;;0.40;99.90;;;;;;15072264;23;20153;-37
2023/01/21 10:32:44;;;;;;;47.80;23.03;;;0.40;99.90;;;;;;15203564;23;20028;-37
2023/01/21 10:39:12;;;;;;;48.20;21.63;;;0.40;99.90;;;;;;15203565;23;20018;-36
2023/01/21 10:45:28;;;;;;;48.22;21.13;;;0.50;99.90;;;;;;15203086;23;20112;-36
2023/01/21 10:51:36;;;;;;;50.28;19.92;;;0.40;99.90;;;;;;15193017;23;20141;-36
2023/01/21 10:58:00;;;;;;;47.80;19.60;;;0.50;99.90;;;;;;15205302;23;20022;-36
2023/01/21 11:04:18;;;;;;;46.08;20.38;;;0.60;99.90;;;;;;15203310;23;20037;-36
2023/01/21 11:10:24;;;;;;;43.80;20.05;;;0.60;99.90;;;;;;15194967;23;20022;-36
2023/01/21 11:16:45;;;;;;;41.00;18.85;;;0.70;99.90;;;;;;15203503;23;20026;-36
2023/01/21 11:22:47;;;;;;;37.10;17.77;;;0.80;99.90;;;;;;15204599;23;20026;-36
2023/01/21 11:29:07;;;;;;;36.92;17.35;;;0.90;99.90;;;;;;15188313;23;20097;-37
2023/01/21 11:35:19;;;;;;;33.28;16.40;;;1.00;99.90;;;;;;15200314;23;20030;-37
2023/01/21 11:41:21;;;;;;;33.65;14.13;;;1.10;99.90;;;;;;15205064;23;20104;-37
2023/01/21 11:47:37;;;;;;;31.63;15.02;;;1.00;99.90;;;;;;15205013;23;20603;-37
2023/01/21 11:53:40;;;;;;;31.77;14.93;;;1.10;99.90;;;;;;15204163;23;20021;-37
2023/01/21 11:59:45;;;;;;;33.72;14.93;;;1.20;99.90;;;;;;15204846;23;20022;-37
2023/01/21 12:05:50;;;;;;;29.33;14.23;;;1.40;99.90;;;;;;15129246;23;20364;-36
2023/01/21 12:12:18;;;;;;;27.90;14.02;;;1.60;99.90;;;;;;15135197;23;20018;-37
2023/01/21 12:18:32;;;;;;;26.67;12.57;;;1.70;99.90;;;;;;15136377;23;20125;-36
2023/01/21 12:25:12;;;;;;;23.40;11.63;;;1.60;99.90;;;;;;15133708;23;20456;-37
2023/01/21 12:31:32;;;;;;;20.40;10.38;;;1.70;99.90;;;;;;15135768;23;20054;-36
2023/01/21 12:37:41;;;;;;;23.38;11.52;;;1.80;99.90;;;;;;15137758;23;20463;-37
2023/01/21 12:43:47;;;;;;;19.58;10.15;;;1.70;99.90;;;;;;15135924;23;20026;-36
2023/01/21 12:50:15;;;;;;;19.30;9.82;;;1.80;99.90;;;;;;15137563;23;20027;-37
2023/01/21 12:56:23;;;;;;;23.67;10.50;;;1.60;99.90;;;;;;15132958;23;20032;-37
2023/01/21 13:02:44;;;;;;;27.63;10.90;;;1.60;99.90;;;;;;15157710;23;20053;-36
2023/01/21 13:09:10;;;;;;;17.48;8.00;;;1.60;99.90;;;;;;15208839;23;20104;-36
2023/01/21 13:15:20;;;;;;;15.02;6.60;;;1.70;99.90;;;;;;15204668;23;20583;-36
2023/01/21 13:21:35;;;;;;;16.77;7.13;;;1.70;99.90;;;;;;15207644;23;20029;-37
2023/01/21 13:27:43;;;;;;;;;;;1.80;99.90;;;;;;15208340;23;20028;-36
2023/01/21 13:34:03;;;;;;;15.27;6.93;;;2.00;99.90;;;;;;15207905;23;19927;-37
2023/01/21 13:40:18;;;;;;;12.75;6.25;;;2.00;99.90;;;;;;15209001;23;20208;-36
2023/01/21 13:46:32;;;;;;;16.83;8.40;;;1.90;99.90;;;;;;15149343;23;20018;-37
2023/01/21 13:52:54;;;;;;;15.38;8.32;;;1.80;99.90;;;;;;15181459;23;20029;-36
2023/01/21 13:59:03;;;;;;;18.33;9.05;;;2.00;99.90;;;;;;15200670;23;20093;-37
2023/01/21 14:05:19;;;;;;;20.02;9.02;;;2.00;99.90;;;;;;15205666;23;20026;-36
2023/01/21 14:11:38;;;;;;;18.20;9.85;;;1.70;99.90;;;;;;15205114;23;20022;-37
2023/01/21 14:17:43;;;;;;;19.02;9.48;;;1.70;99.90;;;;;;15205724;23;20088;-36
2023/01/21 14:23:51;;;;;;;;;;;1.40;99.90;;;;;;15205493;23;20036;-36
2023/01/21 14:30:16;;;;;;;17.13;8.73;;;1.30;99.90;;;;;;15205414;23;19916;-36
2023/01/21 14:36:33;;;;;;;;;;;1.30;99.90;;;;;;15206611;23;20049;-37
2023/01/21 14:42:49;;;;;;;19.17;10.15;;;1.20;99.90;;;;;;15203895;23;19924;-37
2023/01/21 14:49:07;;;;;;;19.85;9.80;;;1.30;99.90;;;;;;15204102;23;20030;-37
2023/01/21 14:55:35;;;;;;;24.13;11.45;;;1.30;99.90;;;;;;15204757;23;20030;-36
2023/01/21 15:01:39;;;;;;;22.50;12.27;;;1.30;99.90;;;;;;15198899;23;20022;-38
2023/01/21 15:07:45;;;;;;;25.33;12.60;;;1.20;99.90;;;;;;15205316;23;20523;-37
2023/01/21 15:14:01;;;;;;;23.25;12.43;;;1.10;99.90;;;;;;15203109;23;20057;-36
2023/01/21 15:20:41;;;;;;;28.30;14.15;;;1.10;99.90;;;;;;15179763;23;20029;-36
2023/01/21 15:27:16;;;;;;;25.40;13.35;;;1.10;99.90;;;;;;15204185;23;20101;-36
2023/01/21 15:33:18;;;;;;;27.23;12.75;;;1.00;99.90;;;;;;15201996;23;20093;-37
2023/01/21 15:39:33;;;;;;;26.02;13.55;;;1.10;99.90;;;;;;15202638;23;20093;-36
2023/01/21 15:46:16;;;;;;;28.27;13.50;;;1.00;99.90;;;;;;15204019;23;20037;-36
2023/01/21 15:52:49;;;;;;;23.90;12.00;;;1.00;99.90;;;;;;15067573;23;20022;-36
2023/01/21 15:59:30;;;;;;;26.77;12.27;;;0.80;99.90;;;;;;15201445;23;20656;-36
2023/01/21 16:05:48;;;;;;;23.48;11.65;;;0.60;99.90;;;;;;15196557;23;20026;-36
2023/01/21 16:12:11;;;;;;;25.85;12.35;;;0.60;99.90;;;;;;15203473;23;20069;-36
2023/01/21 16:18:37;;;;;;;24.58;11.45;;;0.60;99.90;;;;;;15205108;23;20050;-37
2023/01/21 16:24:46;;;;;;;21.85;10.05;;;0.70;99.90;;;;;;15204490;23;20024;-36
2023/01/21 16:30:57;;;;;;;25.20;10.55;;;0.60;99.90;;;;;;15204952;23;20346;-36
2023/01/21 16:37:04;;;;;;;21.52;11.05;;;0.60;99.90;;;;;;15204400;23;20036;-36
2023/01/21 16:43:27;;;;;;;26.63;12.88;;;0.60;99.90;;;;;;15205714;23;20030;-36
2023/01/21 16:49:29;;;;;;;27.40;12.70;;;0.70;99.90;;;;;;15206993;23;20021;-36
2023/01/21 16:55:31;;;;;;;26.95;13.32;;;0.70;99.90;;;;;;15203841;23;20025;-36
2023/01/21 17:01:33;;;;;;;30.05;14.10;;;0.80;99.90;;;;;;15183690;23;20030;-35
2023/01/21 17:07:45;;;;;;;29.50;13.38;;;0.80;99.90;;;;;;15211370;23;20030;-36
2023/01/21 17:13:47;;;;;;;33.25;15.02;;;0.80;99.90;;;;;;15206471;23;20033;-36
2023/01/21 17:19:50;;;;;;;33.00;15.15;;;0.80;99.90;;;;;;15183333;23;20040;-36
2023/01/21 17:25:56;;;;;;;34.22;15.55;;;0.80;99.90;;;;;;15207336;23;20021;-36
2023/01/21 17:32:19;;;;;;;35.50;16.15;;;0.80;99.90;;;;;;15182256;23;20025;-36
2023/01/21 17:38:28;;;;;;;33.65;16.38;;;0.80;99.90;;;;;;15186507;23;20360;-36
2023/01/21 17:44:30;;;;;;;37.65;16.42;;;0.80;99.90;;;;;;15207939;23;20029;-36
2023/01/21 17:50:32;;;;;;;33.47;15.63;;;0.80;99.90;;;;;;15206470;23;20166;-36
2023/01/21 17:56:47;;;;;;;38.53;17.40;;;0.80;99.90;;;;;;15205894;23;20104;-37
2023/01/21 18:02:49;;;;;;;31.02;14.52;;;0.80;99.90;;;;;;15207783;23;20336;-36
2023/01/21 18:08:52;;;;;;;37.72;16.75;;;0.80;99.90;;;;;;15179376;23;20104;-36
2023/01/21 18:14:54;;;;;;;31.40;14.02;;;0.80;99.90;;;;;;15205534;23;20041;-36
2023/01/21 18:20:56;;;;;;;31.90;14.07;;;0.80;99.90;;;;;;15207070;23;20026;-37
2023/01/21 18:26:59;;;;;;;35.03;15.30;;;0.80;99.90;;;;;;15207259;23;20359;-37
2023/01/21 18:33:01;;;;;;;33.30;14.18;;;0.80;99.90;;;;;;15179282;23;20098;-36
2023/01/21 18:39:03;;;;;;;31.08;14.40;;;0.80;99.90;;;;;;15207394;23;20025;-36
2023/01/21 18:45:05;;;;;;;31.27;14.40;;;0.80;99.90;;;;;;15207432;23;20499;-36
2023/01/21 18:51:08;;;;;;;30.85;14.50;;;0.80;99.90;;;;;;15198765;23;20033;-36
2023/01/21 18:57:14;;;;;;;33.05;14.82;;;0.80;99.90;;;;;;15150856;23;20022;-36
2023/01/21 19:03:16;;;;;;;30.05;13.65;;;0.80;99.90;;;;;;15201742;23;20057;-36
2023/01/21 19:09:23;;;;;;;32.20;14.30;;;0.90;99.90;;;;;;15201157;23;20104;-36
2023/01/21 19:15:27;;;;;;;31.23;14.10;;;0.80;99.90;;;;;;15168240;23;20026;-36
2023/01/21 19:21:29;;;;;;;31.17;15.40;;;0.80;99.90;;;;;;15201630;23;20109;-36
2023/01/21 19:27:38;;;;;;;31.17;14.70;;;0.90;99.90;;;;;;15200309;23;20285;-36
2023/01/21 19:33:41;;;;;;;27.95;13.63;;;0.80;99.90;;;;;;15196828;23;20026;-36
2023/01/21 19:39:43;;;;;;;29.95;15.38;;;0.90;99.90;;;;;;15198805;23;20101;-36
2023/01/21 19:45:45;;;;;;;31.73;14.98;;;0.90;99.90;;;;;;15201300;23;20096;-36
2023/01/21 19:51:48;;;;;;;27.88;14.13;;;0.80;99.90;;;;;;15202074;23;20018;-36
2023/01/21 19:58:00;;;;;;;32.03;15.90;;;0.80;99.90;;;;;;15193037;23;20383;-36
2023/01/21 20:04:02;;;;;;;27.70;14.20;;;0.80;99.90;;;;;;15200062;23;20033;-36
2023/01/21 20:10:13;;;;;;;32.20;16.33;;;0.70;99.90;;;;;;15175429;23;20049;-36
2023/01/21 20:16:19;;;;;;;30.08;15.70;;;0.60;99.90;;;;;;15139067;23;20026;-37
2023/01/21 20:22:21;;;;;;;27.50;13.82;;;0.60;99.90;;;;;;15201133;23;20045;-36
2023/01/21 20:28:38;;;;;;;31.02;15.00;;;0.70;99.90;;;;;;15198714;23;20081;-36
2023/01/21 20:34:41;;;;;;;31.15;15.05;;;0.80;99.90;;;;;;15203764;23;20074;-37
2023/01/21 20:40:42;;;;;;;26.10;13.57;;;0.70;99.90;;;;;;15206826;23;20101;-37
2023/01/21 20:46:44;;;;;;;26.48;14.23;;;0.70;99.90;;;;;;15205310;23;20026;-36
2023/01/21 20:52:47;;;;;;;25.45;13.65;;;0.80;99.90;;;;;;15203114;23;20026;-36
2023/01/21 20:58:50;;;;;;;24.15;13.48;;;0.70;99.90;;;;;;15200944;23;20335;-36
2023/01/21 21:04:52;;;;;;;22.80;13.15;;;0.80;99.90;;;;;;15205503;23;20080;-36
2023/01/21 21:10:54;;;;;;;24.77;14.05;;;0.70;99.90;;;;;;15204023;23;20123;-36
2023/01/21 21:16:57;;;;;;;25.08;12.73;;;0.70;99.90;;;;;;15202797;23;20037;-36
2023/01/21 21:22:59;;;;;;;18.25;10.65;;;0.70;99.90;;;;;;15206486;23;20026;-36
2023/01/21 21:29:01;;;;;;;21.35;11.45;;;0.70;99.90;;;;;;15199075;23;20022;-37
2023/01/21 21:35:06;;;;;;;20.10;10.60;;;0.70;99.90;;;;;;15193727;23;20022;-36
2023/01/21 21:53:56;;;;;;;18.40;10.63;;;0.70;99.90;;;;;;15204791;23;20117;-36
2023/01/21 21:59:58;;;;;;;18.30;10.13;;;0.70;99.90;;;;;;15196091;23;20101;-36
2023/01/21 22:06:02;;;;;;;16.63;9.30;;;0.80;99.90;;;;;;15130590;23;20022;-36
2023/01/21 22:12:05;;;;;;;18.27;9.47;;;0.70;99.90;;;;;;15128706;23;20029;-36
2023/01/21 22:18:07;;;;;;;14.23;8.77;;;0.80;99.90;;;;;;15122456;23;20062;-36
2023/01/21 22:24:09;;;;;;;17.73;9.32;;;0.80;99.90;;;;;;15131712;23;20034;-36
2023/01/21 22:30:11;;;;;;;16.27;9.25;;;0.70;99.90;;;;;;15126762;23;20136;-36
2023/01/21 22:36:16;;;;;;;15.77;9.55;;;0.70;99.90;;;;;;15129288;23;20148;-36
2023/01/21 22:42:19;;;;;;;15.43;8.80;;;0.70;99.90;;;;;;15131146;23;20031;-37
2023/01/21 22:48:21;;;;;;;16.75;9.27;;;0.60;99.90;;;;;;15130681;23;20036;-36
2023/01/21 22:54:24;;;;;;;18.80;9.43;;;0.60;99.90;;;;;;15127671;23;20049;-36
2023/01/21 23:00:38;;;;;;;15.80;9.95;;;0.60;99.90;;;;;;15126135;23;20045;-36
2023/01/21 23:06:43;;;;;;;16.58;9.23;;;0.70;99.90;;;;;;15128691;23;20022;-36
2023/01/21 23:12:46;;;;;;;12.82;7.65;;;0.60;99.90;;;;;;15128594;23;20355;-36
2023/01/21 23:18:49;;;;;;;14.30;8.80;;;0.60;99.90;;;;;;15128213;23;20026;-35
2023/01/21 23:24:51;;;;;;;14.35;9.20;;;0.60;99.90;;;;;;15128920;23;20030;-36
2023/01/21 23:30:52;;;;;;;15.10;8.70;;;0.60;99.90;;;;;;15129406;23;20050;-36
2023/01/21 23:36:55;;;;;;;14.98;8.55;;;0.60;99.90;;;;;;15124820;23;20062;-36
2023/01/21 23:42:57;;;;;;;15.48;9.15;;;0.50;99.90;;;;;;15131035;23;20363;-36
2023/01/21 23:48:58;;;;;;;15.95;9.07;;;0.50;99.90;;;;;;15129732;23;20030;-36
2023/01/21 23:55:01;;;;;;;15.30;9.02;;;0.50;99.90;;;;;;15130792;23;20147;-36
